createdAt,value
2022-08-05T00:00:18.704Z,0.80
2022-08-05T00:02:51.089Z,0.85
2022-08-05T00:06:01.922Z,0.70
2022-08-05T00:08:32.805Z,0.75
2022-08-05T00:11:00.540Z,0.73
2022-08-05T00:13:39.621Z,0.80
2022-08-05T00:16:13.414Z,0.70
2022-08-05T00:18:48.121Z,0.70
2022-08-05T00:21:18.286Z,0.70
2022-08-05T00:23:53.616Z,0.75
2022-08-05T00:26:33.270Z,1.00
2022-08-05T00:29:00.275Z,0.63
2022-08-05T00:31:53.350Z,0.70
2022-08-05T00:34:53.547Z,0.60
2022-08-05T00:37:13.126Z,1.10
2022-08-05T00:39:58.395Z,0.88
2022-08-05T00:42:35.263Z,1.00
2022-08-05T00:45:04.712Z,0.70
2022-08-05T00:47:56.818Z,0.85
2022-08-05T00:50:25.228Z,0.90
2022-08-05T00:52:55.278Z,0.63
2022-08-05T00:55:42.143Z,0.80
2022-08-05T00:58:12.420Z,0.70
2022-08-05T01:00:42.261Z,0.90
2022-08-05T01:03:12.659Z,0.93
2022-08-05T01:05:54.461Z,0.70
2022-08-05T01:08:41.465Z,0.75
2022-08-05T01:11:39.005Z,0.85
2022-08-05T01:14:15.605Z,0.73
2022-08-05T01:17:05.333Z,0.73
2022-08-05T01:20:02.214Z,1.10
2022-08-05T01:22:38.551Z,0.90
2022-08-05T01:25:24.764Z,0.90
2022-08-05T01:28:19.376Z,0.90
2022-08-05T01:31:05.062Z,0.90
2022-08-05T01:33:55.408Z,0.80
2022-08-05T01:36:29.468Z,0.77
2022-08-05T01:39:00.395Z,1.10
2022-08-05T01:41:34.552Z,0.85
2022-08-05T01:44:02.980Z,0.82
2022-08-05T01:46:42.279Z,0.88
2022-08-05T01:49:23.594Z,0.80
2022-08-05T01:51:58.959Z,1.00
2022-08-05T01:54:33.861Z,0.80
2022-08-05T01:58:10.214Z,0.80
2022-08-05T02:00:08.183Z,1.00
2022-08-05T02:02:55.049Z,1.00
2022-08-05T02:05:28.871Z,0.88
2022-08-05T02:08:01.704Z,1.08
2022-08-05T02:10:39.644Z,1.00
2022-08-05T02:13:25.753Z,0.98
2022-08-05T02:16:05.723Z,0.80
2022-08-05T02:18:49.710Z,0.88
2022-08-05T02:21:22.028Z,1.02
2022-08-05T02:23:55.141Z,1.00
2022-08-05T02:26:34.027Z,1.00
2022-08-05T02:29:01.934Z,1.10
2022-08-05T02:31:34.851Z,0.80
2022-08-05T02:34:10.060Z,0.87
2022-08-05T02:36:44.081Z,0.87
2022-08-05T02:39:12.203Z,0.90
2022-08-05T02:41:57.626Z,0.80
2022-08-05T02:44:31.846Z,0.85
2022-08-05T02:47:01.203Z,1.02
2022-08-05T02:49:37.974Z,0.80
2022-08-05T02:52:29.502Z,0.90
2022-08-05T02:55:02.065Z,0.95
2022-08-05T02:58:11.880Z,0.77
2022-08-05T03:00:20.387Z,0.98
2022-08-05T03:02:48.851Z,0.90
2022-08-05T03:05:17.166Z,0.85
2022-08-05T03:08:00.584Z,0.98
2022-08-05T03:10:31.813Z,0.93
2022-08-05T03:15:27.990Z,0.68
2022-08-05T03:17:57.464Z,0.90
2022-08-05T03:20:25.251Z,0.93
2022-08-05T03:22:57.311Z,0.98
2022-08-05T03:25:32.933Z,0.85
2022-08-05T03:28:03.664Z,1.03
2022-08-05T03:30:33.717Z,0.90
2022-08-05T03:33:06.359Z,0.73
2022-08-05T03:35:41.121Z,1.10
2022-08-05T03:38:12.142Z,0.90
2022-08-05T03:40:45.206Z,1.10
2022-08-05T03:44:08.957Z,0.90
2022-08-05T03:46:04.862Z,0.77
2022-08-05T03:48:35.518Z,0.95
2022-08-05T03:52:48.779Z,1.00
2022-08-05T03:55:06.751Z,0.90
2022-08-05T03:57:16.522Z,0.90
2022-08-05T04:00:08.025Z,0.70
2022-08-05T04:02:45.246Z,0.75
2022-08-05T04:05:26.040Z,1.23
2022-08-05T04:07:58.521Z,1.25
2022-08-05T04:10:37.113Z,1.00
2022-08-05T04:13:07.749Z,0.90
2022-08-05T04:15:36.244Z,0.70
2022-08-05T04:18:06.703Z,0.80
2022-08-05T04:20:35.023Z,0.85
2022-08-05T04:23:02.064Z,0.98
2022-08-05T04:25:56.456Z,0.98
2022-08-05T04:28:17.286Z,1.00
2022-08-05T04:30:45.571Z,0.60
2022-08-05T04:33:13.570Z,0.52
2022-08-05T04:36:11.388Z,0.95
2022-08-05T04:38:40.013Z,0.98
2022-08-05T04:41:09.610Z,0.97
2022-08-05T04:43:40.542Z,0.90
2022-08-05T04:46:13.792Z,1.10
2022-08-05T04:48:55.432Z,1.17
2022-08-05T04:51:25.949Z,1.20
2022-08-05T04:53:57.800Z,0.90
2022-08-05T04:56:34.897Z,0.90
2022-08-05T04:59:21.524Z,1.02
2022-08-05T05:02:06.711Z,1.27
2022-08-05T05:04:38.515Z,1.13
2022-08-05T05:07:16.015Z,1.10
2022-08-05T05:09:45.428Z,1.15
2022-08-05T05:12:12.601Z,1.20
2022-08-05T05:14:49.495Z,0.90
2022-08-05T05:17:23.971Z,1.10
2022-08-05T05:19:55.227Z,1.00
2022-08-05T05:22:26.014Z,1.00
2022-08-05T05:24:58.064Z,0.90
2022-08-05T05:27:45.198Z,0.98
2022-08-05T05:30:29.051Z,0.90
2022-08-05T05:33:00.802Z,1.02
2022-08-05T05:35:37.794Z,0.82
2022-08-05T05:38:09.523Z,1.27
2022-08-05T05:40:49.435Z,1.10
2022-08-05T05:43:27.851Z,1.13
2022-08-05T05:46:05.318Z,0.80
2022-08-05T05:48:38.003Z,0.75
2022-08-05T05:51:15.181Z,1.00
2022-08-05T05:53:54.615Z,0.82
2022-08-05T05:56:33.370Z,0.90
2022-08-05T05:59:07.629Z,1.00
2022-08-05T06:01:39.544Z,0.80
2022-08-05T06:04:14.314Z,0.90
2022-08-05T06:06:46.680Z,1.00
2022-08-05T06:09:24.831Z,0.80
2022-08-05T06:12:01.336Z,0.70
2022-08-05T06:14:31.175Z,0.90
2022-08-05T06:16:59.471Z,0.70
2022-08-05T06:19:34.844Z,0.77
2022-08-05T06:22:07.419Z,0.90
2022-08-05T06:24:41.900Z,0.70
2022-08-05T06:28:09.497Z,0.75
2022-08-05T06:30:16.725Z,0.80
2022-08-05T06:32:47.203Z,0.90
2022-08-05T06:35:15.390Z,0.75
2022-08-05T06:37:58.011Z,0.68
2022-08-05T06:40:28.021Z,0.80
2022-08-05T06:42:59.541Z,0.50
2022-08-05T06:46:03.428Z,0.70
2022-08-05T06:48:54.557Z,0.70
2022-08-05T06:51:00.590Z,0.60
2022-08-05T06:53:28.983Z,0.88
2022-08-05T06:56:00.618Z,0.60
2022-08-05T06:58:34.837Z,0.77
2022-08-05T07:01:07.491Z,0.77
2022-08-05T07:03:35.237Z,0.60
2022-08-05T07:06:06.284Z,0.75
2022-08-05T07:08:47.526Z,0.87
2022-08-05T07:11:22.193Z,0.57
2022-08-05T07:14:20.180Z,0.80
2022-08-05T07:17:59.528Z,0.80
2022-08-05T07:22:28.540Z,0.85
2022-08-05T07:25:21.975Z,0.52
2022-08-05T07:27:58.558Z,0.60
2022-08-05T07:30:39.931Z,0.73
2022-08-05T07:33:16.552Z,0.50
2022-08-05T07:36:02.194Z,0.80
2022-08-05T07:38:42.547Z,0.45
2022-08-05T07:42:14.678Z,0.60
2022-08-05T07:44:07.516Z,0.50
2022-08-05T07:46:48.489Z,0.50
2022-08-05T07:49:18.187Z,0.63
2022-08-05T07:51:53.751Z,0.68
2022-08-05T07:54:31.130Z,0.50
2022-08-05T07:57:41.710Z,0.43
2022-08-05T07:59:50.192Z,0.40
2022-08-05T08:02:18.195Z,0.55
2022-08-05T08:04:49.430Z,0.40
2022-08-05T08:07:22.380Z,0.60
2022-08-05T08:09:54.955Z,0.30
2022-08-05T08:12:37.419Z,0.32
2022-08-05T08:15:15.100Z,0.30
2022-08-05T08:17:49.734Z,0.40
2022-08-05T08:20:43.361Z,0.50
2022-08-05T08:24:00.407Z,0.40
2022-08-05T08:25:59.017Z,0.33
2022-08-05T08:28:36.118Z,0.22
2022-08-05T08:31:08.045Z,0.47
2022-08-05T08:33:36.124Z,0.30
2022-08-05T08:38:56.754Z,0.30
2022-08-05T08:41:51.899Z,0.40
2022-08-05T08:45:19.417Z,0.45
2022-08-05T08:47:47.149Z,0.40
2022-08-05T08:50:05.720Z,0.47
2022-08-05T08:52:54.269Z,0.55
2022-08-05T08:56:01.673Z,0.47
2022-08-05T08:58:13.048Z,0.40
2022-08-05T09:00:42.861Z,0.32
2022-08-05T09:03:12.174Z,0.50
2022-08-05T09:06:08.590Z,0.63
2022-08-05T09:08:30.490Z,0.50
2022-08-05T09:10:58.324Z,0.40
2022-08-05T09:13:31.548Z,0.47
2022-08-05T09:15:59.609Z,0.40
2022-08-05T09:18:27.032Z,0.40
2022-08-05T09:20:54.412Z,0.33
2022-08-05T09:23:23.510Z,0.28
2022-08-05T09:26:20.559Z,0.30
2022-08-05T09:28:49.361Z,0.40
2022-08-05T09:31:43.580Z,0.40
2022-08-05T09:34:10.290Z,0.30
2022-08-05T09:36:54.351Z,0.40
2022-08-05T09:39:27.874Z,0.30
2022-08-05T09:42:23.670Z,0.30
2022-08-05T09:44:57.424Z,0.30
2022-08-05T09:47:49.103Z,0.40
2022-08-05T09:50:38.012Z,0.40
2022-08-05T09:53:06.109Z,0.30
2022-08-05T09:55:56.833Z,0.30
2022-08-05T09:58:25.390Z,0.40
2022-08-05T10:01:15.240Z,0.28
2022-08-05T10:04:00.429Z,0.20
2022-08-05T10:06:28.328Z,0.30
2022-08-05T10:09:09.343Z,0.38
2022-08-05T10:11:52.535Z,0.30
2022-08-05T10:14:32.122Z,0.22
2022-08-05T10:17:38.102Z,0.32
2022-08-05T10:20:09.932Z,0.30
2022-08-05T10:22:43.175Z,0.45
2022-08-05T10:25:19.102Z,0.32
2022-08-05T10:28:13.435Z,0.40
2022-08-05T10:31:20.784Z,0.32
2022-08-05T10:33:29.943Z,0.30
2022-08-05T10:36:05.435Z,0.30
2022-08-05T10:38:36.280Z,0.30
2022-08-05T10:41:45.314Z,0.20
2022-08-05T10:44:19.111Z,0.15
2022-08-05T10:46:53.998Z,0.20
2022-08-05T10:49:27.447Z,0.20
2022-08-05T10:52:03.269Z,0.28
2022-08-05T10:55:06.405Z,0.30
2022-08-05T10:57:34.502Z,0.30
2022-08-05T11:00:20.700Z,0.50
2022-08-05T11:03:24.858Z,0.40
2022-08-05T11:06:15.837Z,0.20
2022-08-05T11:09:13.193Z,0.20
2022-08-05T11:11:52.836Z,0.30
2022-08-05T11:17:59.783Z,0.17
2022-08-05T11:20:51.032Z,0.20
2022-08-05T11:24:04.559Z,0.27
2022-08-05T11:26:43.228Z,0.32
2022-08-05T11:29:40.995Z,0.20
2022-08-05T11:32:29.207Z,0.38
2022-08-05T11:34:57.858Z,0.28
2022-08-05T11:38:29.001Z,0.30
2022-08-05T11:41:12.716Z,0.43
2022-08-05T11:44:07.559Z,0.30
2022-08-05T11:47:09.509Z,0.20
2022-08-05T11:49:34.358Z,0.30
2022-08-05T11:52:02.101Z,0.20
2022-08-05T11:54:41.305Z,0.20
2022-08-05T11:57:25.501Z,0.20
2022-08-05T11:59:55.263Z,0.30
2022-08-05T12:02:33.702Z,0.30
2022-08-05T12:05:06.774Z,0.30
2022-08-05T12:08:08.220Z,0.20
2022-08-05T12:10:38.454Z,0.20
2022-08-05T12:13:16.650Z,0.25
2022-08-05T12:15:50.005Z,0.17
2022-08-05T12:18:33.059Z,0.30
2022-08-05T12:21:23.712Z,0.50
2022-08-05T12:24:09.753Z,0.20
2022-08-05T12:26:39.815Z,0.30
2022-08-05T12:29:26.852Z,0.22
2022-08-05T12:32:02.056Z,0.30
2022-08-05T12:34:33.817Z,0.30
2022-08-05T12:37:14.041Z,0.20
2022-08-05T12:39:51.254Z,0.17
2022-08-05T12:42:21.277Z,0.20
2022-08-05T12:44:52.225Z,0.10
2022-08-05T12:47:30.618Z,0.22
2022-08-05T12:50:04.139Z,0.20
2022-08-05T12:52:39.759Z,0.30
2022-08-05T12:55:25.186Z,0.30
2022-08-05T12:58:50.460Z,0.10
2022-08-05T13:02:02.755Z,0.20
2022-08-05T13:03:41.914Z,0.20
2022-08-05T13:06:16.933Z,0.20
2022-08-05T13:08:51.395Z,0.20
2022-08-05T13:12:02.375Z,0.30
2022-08-05T13:14:24.945Z,0.30
2022-08-05T13:17:16.202Z,0.20
2022-08-05T13:20:07.009Z,0.20
2022-08-05T13:22:47.338Z,0.20
2022-08-05T13:25:19.322Z,0.20
2022-08-05T13:27:51.390Z,0.20
2022-08-05T13:30:34.543Z,0.20
2022-08-05T13:33:03.463Z,0.30
2022-08-05T13:35:42.603Z,0.20
2022-08-05T13:38:20.244Z,0.20
2022-08-05T13:40:57.726Z,0.10
2022-08-05T13:43:44.130Z,0.30
2022-08-05T13:46:13.028Z,0.20
2022-08-05T13:48:58.582Z,0.30
2022-08-05T13:51:36.628Z,0.20
2022-08-05T13:54:12.462Z,0.25
2022-08-05T13:56:51.067Z,0.30
2022-08-05T13:59:23.984Z,0.20
2022-08-05T14:01:59.546Z,0.20
2022-08-05T14:05:11.459Z,0.20
2022-08-05T14:08:00.907Z,0.40
2022-08-05T14:10:32.477Z,0.30
2022-08-05T14:13:00.030Z,0.20
2022-08-05T14:16:05.682Z,0.20
2022-08-05T14:18:18.189Z,0.20
2022-08-05T14:20:54.618Z,0.20
2022-08-05T14:23:24.865Z,0.20
2022-08-05T14:25:58.616Z,0.30
2022-08-05T14:28:30.440Z,0.20
2022-08-05T14:30:59.179Z,0.20
2022-08-05T14:33:26.553Z,0.13
2022-08-05T14:35:54.464Z,0.28
2022-08-05T14:38:33.274Z,0.10
2022-08-05T14:41:06.911Z,0.23
2022-08-05T14:43:57.620Z,0.10
2022-08-05T14:46:28.009Z,0.50
2022-08-05T14:48:58.961Z,0.10
2022-08-05T14:51:31.076Z,0.10
2022-08-05T14:54:06.668Z,0.30
2022-08-05T14:56:47.258Z,0.20
2022-08-05T14:59:15.584Z,0.30
2022-08-05T15:01:48.262Z,0.10
2022-08-05T15:04:20.625Z,0.23
2022-08-05T15:06:51.158Z,0.17
2022-08-05T15:09:51.942Z,0.30
2022-08-05T15:12:11.683Z,0.20
2022-08-05T15:14:50.210Z,0.10
2022-08-05T15:17:45.861Z,0.10
2022-08-05T15:20:18.240Z,0.20
2022-08-05T15:22:54.052Z,0.10
2022-08-05T15:25:41.078Z,0.10
2022-08-05T15:28:14.848Z,0.20
2022-08-05T15:30:45.896Z,0.28
2022-08-05T15:34:04.127Z,0.28
2022-08-05T15:36:05.121Z,0.30
2022-08-05T15:38:48.107Z,0.20
2022-08-05T15:41:22.985Z,0.20
2022-08-05T15:43:54.482Z,0.17
2022-08-05T15:46:24.381Z,0.30
2022-08-05T15:48:58.683Z,0.30
2022-08-05T15:52:12.619Z,0.32
2022-08-05T15:54:17.109Z,0.20
2022-08-05T15:56:44.212Z,0.50
2022-08-05T15:59:21.681Z,0.28
2022-08-05T16:01:52.901Z,0.30
2022-08-05T16:04:25.273Z,0.20
2022-08-05T16:06:55.593Z,0.30
2022-08-05T16:09:24.429Z,0.28
2022-08-05T16:11:53.968Z,0.30
2022-08-05T16:14:24.712Z,0.28
2022-08-05T16:16:52.264Z,0.30
2022-08-05T16:20:03.272Z,0.30
2022-08-05T16:22:10.693Z,0.20
2022-08-05T16:24:41.885Z,0.30
2022-08-05T16:27:19.445Z,0.30
2022-08-05T16:30:08.355Z,0.30
2022-08-05T16:32:54.346Z,0.27
2022-08-05T16:35:24.866Z,0.30
2022-08-05T16:38:15.257Z,0.20
2022-08-05T16:40:43.140Z,0.20
2022-08-05T16:43:19.557Z,0.30
2022-08-05T16:46:07.517Z,0.20
2022-08-05T16:48:35.297Z,0.20
2022-08-05T16:51:08.819Z,0.20
2022-08-05T16:54:04.808Z,0.30
2022-08-05T16:56:29.423Z,0.22
2022-08-05T16:58:58.424Z,0.25
2022-08-05T17:01:26.123Z,0.38
2022-08-05T17:03:53.306Z,0.30
2022-08-05T17:06:20.874Z,0.30
2022-08-05T17:08:54.430Z,0.30
2022-08-05T17:11:25.120Z,0.50
2022-08-05T17:14:00.543Z,1.17
2022-08-05T17:16:37.742Z,0.90
2022-08-05T17:19:07.099Z,1.02
2022-08-05T17:21:36.712Z,1.10
2022-08-05T17:24:28.197Z,1.40
2022-08-05T17:26:57.875Z,2.08
2022-08-05T17:29:32.850Z,0.90
2022-08-05T17:32:08.500Z,1.05
2022-08-05T17:34:38.799Z,0.90
2022-08-05T17:37:29.401Z,0.60
2022-08-05T17:39:55.200Z,0.68
2022-08-05T17:42:28.892Z,0.52
2022-08-05T17:45:00.569Z,0.47
2022-08-05T17:47:37.600Z,0.52
2022-08-05T17:50:11.124Z,0.47
2022-08-05T17:52:53.376Z,0.45
2022-08-05T17:55:27.398Z,0.47
2022-08-05T17:58:02.247Z,0.50
2022-08-05T18:00:30.147Z,0.30
2022-08-05T18:02:57.587Z,0.25
2022-08-05T18:05:28.219Z,0.50
2022-08-05T18:08:02.353Z,0.40
2022-08-05T18:10:32.097Z,0.30
2022-08-05T18:13:01.766Z,0.73
2022-08-05T18:15:31.233Z,0.68
2022-08-05T18:18:05.674Z,0.30
2022-08-05T18:20:38.976Z,0.40
2022-08-05T18:23:09.124Z,0.30
2022-08-05T18:25:38.846Z,0.63
2022-08-05T18:28:07.538Z,0.37
2022-08-05T18:30:39.108Z,0.32
2022-08-05T18:33:08.563Z,0.43
2022-08-05T18:35:59.856Z,0.40
2022-08-05T18:38:29.137Z,0.52
2022-08-05T18:41:57.003Z,0.35
2022-08-05T18:43:48.748Z,0.60
2022-08-05T18:46:20.039Z,0.50
2022-08-05T18:48:53.819Z,0.20
2022-08-05T18:52:03.354Z,0.20
2022-08-05T18:54:30.982Z,0.47
2022-08-05T18:57:00.980Z,0.47
2022-08-05T18:59:43.923Z,0.45
2022-08-05T19:02:27.708Z,0.30
2022-08-05T19:05:02.114Z,0.32
2022-08-05T19:07:47.943Z,0.50
2022-08-05T19:10:28.063Z,0.30
2022-08-05T19:12:57.071Z,0.40
2022-08-05T19:15:57.744Z,0.35
2022-08-05T19:18:20.916Z,0.50
2022-08-05T19:20:54.190Z,0.40
2022-08-05T19:24:07.090Z,0.35
2022-08-05T19:26:11.243Z,0.30
2022-08-05T19:28:42.222Z,0.28
2022-08-05T19:31:13.205Z,0.32
2022-08-05T19:33:48.684Z,0.38
2022-08-05T19:36:29.232Z,0.40
2022-08-05T19:39:00.984Z,0.22
2022-08-05T19:42:05.591Z,0.40
2022-08-05T19:44:19.035Z,0.30
2022-08-05T19:46:46.296Z,0.68
2022-08-05T19:49:17.036Z,0.30
2022-08-05T19:52:08.682Z,0.50
2022-08-05T19:54:34.808Z,0.32
2022-08-05T19:57:09.460Z,0.40
2022-08-05T19:59:56.406Z,0.30
2022-08-05T20:02:27.984Z,0.40
2022-08-05T20:04:58.557Z,0.30
2022-08-05T20:07:38.981Z,0.50
2022-08-05T20:10:14.221Z,0.40
2022-08-05T20:12:48.031Z,0.30
2022-08-05T20:15:22.964Z,0.20
2022-08-05T20:18:10.922Z,0.47
2022-08-05T20:20:57.179Z,0.35
2022-08-05T20:23:40.715Z,0.43
2022-08-05T20:26:15.400Z,0.40
2022-08-05T20:28:48.478Z,0.32
2022-08-05T20:31:21.695Z,0.20
2022-08-05T20:33:51.213Z,0.50
2022-08-05T20:36:19.547Z,0.20
2022-08-05T20:38:54.217Z,0.30
2022-08-05T20:41:43.988Z,0.25
2022-08-05T20:44:18.477Z,0.38
2022-08-05T20:46:57.962Z,0.40
2022-08-05T20:49:25.857Z,0.32
2022-08-05T20:51:54.906Z,0.22
2022-08-05T20:54:25.407Z,0.40
2022-08-05T20:56:53.243Z,0.40
2022-08-05T20:59:26.400Z,0.20
2022-08-05T21:01:57.179Z,0.40
2022-08-05T21:04:27.065Z,0.50
2022-08-05T21:06:55.065Z,0.40
2022-08-05T21:09:23.070Z,0.50
2022-08-05T21:12:10.869Z,0.30
2022-08-05T21:14:39.124Z,0.40
2022-08-05T21:17:06.589Z,0.38
2022-08-05T21:19:46.807Z,0.40
2022-08-05T21:22:23.215Z,0.40
2022-08-05T21:24:52.673Z,0.57
2022-08-05T21:27:25.381Z,0.38
2022-08-05T21:29:56.345Z,0.40
2022-08-05T21:32:27.189Z,0.40
2022-08-05T21:35:08.863Z,0.50
2022-08-05T21:37:47.240Z,0.57
2022-08-05T21:40:24.130Z,0.40
2022-08-05T21:42:54.783Z,0.52
2022-08-05T21:45:51.843Z,0.50
2022-08-05T21:48:14.100Z,0.40
2022-08-05T21:50:53.064Z,0.40
2022-08-05T21:53:24.867Z,0.50
2022-08-05T21:56:06.398Z,0.50
2022-08-05T21:58:57.015Z,0.45
2022-08-05T22:01:25.836Z,0.45
2022-08-05T22:03:53.753Z,0.60
2022-08-05T22:06:23.142Z,0.50
2022-08-05T22:09:13.963Z,0.70
2022-08-05T22:11:43.343Z,0.57
2022-08-05T22:14:35.755Z,0.38
2022-08-05T22:17:05.299Z,0.50
2022-08-05T22:20:01.037Z,0.40
2022-08-05T22:22:27.375Z,0.40
2022-08-05T22:25:18.249Z,0.38
2022-08-05T22:28:08.706Z,0.30
2022-08-05T22:30:55.931Z,0.60
2022-08-05T22:33:58.635Z,0.43
2022-08-05T22:36:15.496Z,0.60
2022-08-05T22:38:48.683Z,0.52
2022-08-05T22:42:05.364Z,0.38
2022-08-05T22:44:09.380Z,0.40
2022-08-05T22:46:40.895Z,0.50
2022-08-05T22:50:18.233Z,0.50
2022-08-05T22:52:05.086Z,0.52
2022-08-05T22:54:37.828Z,0.30
2022-08-05T22:57:06.894Z,0.50
2022-08-05T22:59:47.407Z,0.40
2022-08-05T23:02:18.437Z,0.40
2022-08-05T23:04:56.083Z,0.40
2022-08-05T23:07:23.096Z,0.45
2022-08-05T23:09:57.934Z,0.50
2022-08-05T23:12:33.282Z,0.60
2022-08-05T23:15:09.268Z,0.40
2022-08-05T23:17:37.909Z,0.50
2022-08-05T23:20:24.562Z,0.60
2022-08-05T23:22:55.706Z,0.40
2022-08-05T23:25:52.053Z,0.50
2022-08-05T23:28:12.035Z,0.55
2022-08-05T23:30:43.886Z,0.52
2022-08-05T23:33:16.036Z,0.40
2022-08-05T23:35:43.654Z,0.60
2022-08-05T23:38:12.082Z,0.50
2022-08-05T23:40:39.216Z,0.50
2022-08-05T23:43:11.316Z,0.47
2022-08-05T23:45:51.709Z,0.50
2022-08-05T23:48:19.742Z,0.50
2022-08-05T23:50:46.832Z,0.50
2022-08-05T23:53:22.695Z,0.53
2022-08-05T23:55:50.220Z,0.50
2022-08-05T23:58:31.971Z,0.50
